createdAt,value
2019-02-18T00:00:23.704Z,2.58
2019-02-18T00:01:23.756Z,2.55
2019-02-18T00:02:23.802Z,2.56
2019-02-18T00:03:23.853Z,2.56
2019-02-18T00:04:23.902Z,2.61
2019-02-18T00:05:23.954Z,2.76
2019-02-18T00:06:24.003Z,2.76
2019-02-18T00:07:24.055Z,2.79
2019-02-18T00:08:24.103Z,2.73
2019-02-18T00:09:24.155Z,2.73
2019-02-18T00:10:24.206Z,2.61
2019-02-18T00:11:24.256Z,2.62
2019-02-18T00:12:24.306Z,2.62
2019-02-18T00:13:24.413Z,2.74
2019-02-18T00:14:24.410Z,2.73
2019-02-18T00:15:24.456Z,2.56
2019-02-18T00:16:24.505Z,2.43
2019-02-18T00:17:24.556Z,2.32
2019-02-18T00:18:24.610Z,2.30
2019-02-18T00:19:24.664Z,2.26
2019-02-18T00:20:24.708Z,2.20
2019-02-18T00:21:24.759Z,2.12
2019-02-18T00:22:24.810Z,2.07
2019-02-18T00:23:24.860Z,2.14
2019-02-18T00:24:24.908Z,2.12
2019-02-18T00:25:24.959Z,2.23
2019-02-18T00:26:25.009Z,2.23
2019-02-18T00:27:25.058Z,2.22
2019-02-18T00:28:25.109Z,2.30
2019-02-18T00:29:25.160Z,2.18
2019-02-18T00:30:25.210Z,2.26
2019-02-18T00:31:25.260Z,2.36
2019-02-18T00:32:25.310Z,2.38
2019-02-18T00:33:25.361Z,2.32
2019-02-18T00:34:25.410Z,2.29
2019-02-18T00:35:25.460Z,2.38
2019-02-18T00:36:26.050Z,2.37
2019-02-18T00:37:26.195Z,2.37
2019-02-18T00:38:26.411Z,2.27
2019-02-18T00:39:26.390Z,2.14
2019-02-18T00:40:25.711Z,2.04
2019-02-18T00:41:25.762Z,2.04
2019-02-18T00:42:25.823Z,2.04
2019-02-18T00:43:25.861Z,2.02
2019-02-18T00:44:25.913Z,2.09
2019-02-18T00:45:25.967Z,2.14
2019-02-18T00:46:26.011Z,2.12
2019-02-18T00:47:26.062Z,2.33
2019-02-18T00:48:26.171Z,2.30
2019-02-18T00:49:26.161Z,2.37
2019-02-18T00:50:26.212Z,2.38
2019-02-18T00:51:26.263Z,2.40
2019-02-18T00:52:26.312Z,2.33
2019-02-18T00:53:26.361Z,2.37
2019-02-18T00:54:26.414Z,2.23
2019-02-18T00:55:26.462Z,2.01
2019-02-18T00:56:26.511Z,2.12
2019-02-18T00:57:26.562Z,2.09
2019-02-18T00:58:26.612Z,2.15
2019-02-18T00:59:26.663Z,2.27
2019-02-18T01:00:26.714Z,2.18
2019-02-18T01:01:26.762Z,2.05
2019-02-18T01:02:26.812Z,2.02
2019-02-18T01:03:26.861Z,2.07
2019-02-18T01:04:26.911Z,1.88
2019-02-18T01:05:26.961Z,1.79
2019-02-18T01:06:27.012Z,1.75
2019-02-18T01:07:34.568Z,1.71
2019-02-18T01:08:27.110Z,1.68
2019-02-18T01:09:27.163Z,1.65
2019-02-18T01:10:27.213Z,1.74
2019-02-18T01:11:27.260Z,1.70
2019-02-18T01:12:27.311Z,1.79
2019-02-18T01:13:27.361Z,1.79
2019-02-18T01:14:27.413Z,1.83
2019-02-18T01:15:27.463Z,1.83
2019-02-18T01:16:27.514Z,1.81
2019-02-18T01:17:27.561Z,1.81
2019-02-18T01:18:27.649Z,1.81
2019-02-18T01:19:27.691Z,1.82
2019-02-18T01:20:27.719Z,1.75
2019-02-18T01:21:27.759Z,1.71
2019-02-18T01:22:27.810Z,1.67
2019-02-18T01:23:27.859Z,1.57
2019-02-18T01:24:27.908Z,1.56
2019-02-18T01:25:27.959Z,1.72
2019-02-18T01:26:28.010Z,1.70
2019-02-18T01:27:28.056Z,1.68
2019-02-18T01:28:28.126Z,1.71
2019-02-18T01:29:28.161Z,1.83
2019-02-18T01:30:28.207Z,1.92
2019-02-18T01:31:28.258Z,1.90
2019-02-18T01:32:28.307Z,1.86
2019-02-18T01:33:28.357Z,1.71
2019-02-18T01:34:28.405Z,1.61
2019-02-18T01:35:28.456Z,1.50
2019-02-18T01:36:28.510Z,1.71
2019-02-18T01:37:28.555Z,1.81
2019-02-18T01:38:29.204Z,1.70
2019-02-18T01:39:29.405Z,1.74
2019-02-18T01:40:29.327Z,1.83
2019-02-18T01:41:28.754Z,1.77
2019-02-18T01:42:28.805Z,1.71
2019-02-18T01:43:28.854Z,1.70
2019-02-18T01:44:28.904Z,1.54
2019-02-18T01:45:28.954Z,1.53
2019-02-18T01:46:29.004Z,1.56
2019-02-18T01:47:29.053Z,1.60
2019-02-18T01:48:29.103Z,1.57
2019-02-18T01:49:29.152Z,1.65
2019-02-18T01:50:29.202Z,1.67
2019-02-18T01:51:29.250Z,1.63
2019-02-18T01:52:29.302Z,1.52
2019-02-18T01:53:29.352Z,1.52
2019-02-18T01:54:29.401Z,1.61
2019-02-18T01:55:29.450Z,1.61
2019-02-18T01:56:29.499Z,1.60
2019-02-18T01:57:29.551Z,1.56
2019-02-18T01:58:29.600Z,1.52
2019-02-18T01:59:29.647Z,1.47
2019-02-18T02:00:29.698Z,1.49
2019-02-18T02:01:29.749Z,1.67
2019-02-18T02:02:29.797Z,1.68
2019-02-18T02:03:29.846Z,1.49
2019-02-18T02:04:29.896Z,1.44
2019-02-18T02:05:29.947Z,1.28
2019-02-18T02:06:29.995Z,1.34
2019-02-18T02:07:30.045Z,1.50
2019-02-18T02:08:30.103Z,1.71
2019-02-18T02:09:30.145Z,1.79
2019-02-18T02:10:30.194Z,1.83
2019-02-18T02:11:30.243Z,1.65
2019-02-18T02:12:30.324Z,1.67
2019-02-18T02:13:30.342Z,1.53
2019-02-18T02:14:30.393Z,1.42
2019-02-18T02:15:30.442Z,1.26
2019-02-18T02:16:30.493Z,1.31
2019-02-18T02:17:30.542Z,1.54
2019-02-18T02:18:30.592Z,1.61
2019-02-18T02:19:30.639Z,1.54
2019-02-18T02:20:30.689Z,1.67
2019-02-18T02:21:30.741Z,1.79
2019-02-18T02:22:30.789Z,1.77
2019-02-18T02:23:30.837Z,1.56
2019-02-18T02:24:30.887Z,1.53
2019-02-18T02:25:30.937Z,1.42
2019-02-18T02:26:30.987Z,1.32
2019-02-18T02:27:31.043Z,1.20
2019-02-18T02:28:31.085Z,1.14
2019-02-18T02:29:31.137Z,1.07
2019-02-18T02:30:31.187Z,0.99
2019-02-18T02:31:31.235Z,1.00
2019-02-18T02:32:31.285Z,1.00
2019-02-18T02:33:31.335Z,0.90
2019-02-18T02:34:31.384Z,0.88
2019-02-18T02:35:31.432Z,0.93
2019-02-18T02:36:31.488Z,1.00
2019-02-18T02:37:31.531Z,0.98
2019-02-18T02:38:31.583Z,1.07
2019-02-18T02:39:31.634Z,1.06
2019-02-18T02:40:31.681Z,1.10
2019-02-18T02:41:31.731Z,0.98
2019-02-18T02:42:31.782Z,0.99
2019-02-18T02:43:31.828Z,1.07
2019-02-18T02:44:31.894Z,1.07
2019-02-18T02:45:31.927Z,1.14
2019-02-18T02:46:31.979Z,1.17
2019-02-18T02:47:32.027Z,1.18
2019-02-18T02:48:32.076Z,1.18
2019-02-18T02:49:32.126Z,1.07
2019-02-18T02:50:32.175Z,0.96
2019-02-18T02:51:32.223Z,0.88
2019-02-18T02:52:32.277Z,0.92
2019-02-18T02:53:32.321Z,0.95
2019-02-18T02:54:32.373Z,0.98
2019-02-18T02:55:32.422Z,1.02
2019-02-18T02:56:32.470Z,0.99
2019-02-18T02:57:32.518Z,1.16
2019-02-18T02:58:32.568Z,1.21
2019-02-18T02:59:32.632Z,1.17
2019-02-18T03:00:32.666Z,1.18
2019-02-18T03:01:32.719Z,1.16
2019-02-18T03:02:32.779Z,1.07
2019-02-18T03:03:32.814Z,1.11
2019-02-18T03:04:32.864Z,0.95
2019-02-18T03:05:32.914Z,0.89
2019-02-18T03:06:32.976Z,0.89
2019-02-18T03:07:33.010Z,0.75
2019-02-18T03:08:33.061Z,0.81
2019-02-18T03:09:33.110Z,0.75
2019-02-18T03:10:33.160Z,0.82
2019-02-18T03:11:33.209Z,0.90
2019-02-18T03:12:33.258Z,0.88
2019-02-18T03:13:33.306Z,0.84
2019-02-18T03:14:33.358Z,0.74
2019-02-18T03:15:33.406Z,0.90
2019-02-18T03:16:33.454Z,0.96
2019-02-18T03:17:33.506Z,0.98
2019-02-18T03:18:33.554Z,0.93
2019-02-18T03:19:33.603Z,0.84
2019-02-18T03:20:33.651Z,0.95
2019-02-18T03:21:33.701Z,0.96
2019-02-18T03:22:33.752Z,0.82
2019-02-18T03:23:33.798Z,1.00
2019-02-18T03:24:33.849Z,1.02
2019-02-18T03:25:33.901Z,0.98
2019-02-18T03:26:33.946Z,0.93
2019-02-18T03:27:33.996Z,0.89
2019-02-18T03:28:34.046Z,0.98
2019-02-18T03:29:34.095Z,0.95
2019-02-18T03:30:34.145Z,1.07
2019-02-18T03:31:34.194Z,1.10
2019-02-18T03:32:34.493Z,1.10
2019-02-18T03:33:34.314Z,1.14
2019-02-18T03:34:34.343Z,1.16
2019-02-18T03:35:34.389Z,0.99
2019-02-18T03:36:34.439Z,0.89
2019-02-18T03:37:34.488Z,0.72
2019-02-18T03:38:34.538Z,0.68
2019-02-18T03:39:34.587Z,0.57
2019-02-18T03:40:34.640Z,0.62
2019-02-18T03:41:34.688Z,0.53
2019-02-18T03:42:34.735Z,0.53
2019-02-18T03:43:35.564Z,0.56
2019-02-18T03:44:35.421Z,0.48
2019-02-18T03:45:35.571Z,0.43
2019-02-18T03:46:35.532Z,0.37
2019-02-18T03:47:34.979Z,0.35
2019-02-18T03:48:35.034Z,0.38
2019-02-18T03:49:35.081Z,0.43
2019-02-18T03:50:35.127Z,0.43
2019-02-18T03:51:35.814Z,0.37
2019-02-18T03:52:35.865Z,0.43
2019-02-18T03:53:35.919Z,0.70
2019-02-18T03:54:35.877Z,0.78
2019-02-18T03:55:35.932Z,0.71
2019-02-18T03:56:36.063Z,0.67
2019-02-18T03:57:36.070Z,0.63
2019-02-18T03:58:35.525Z,0.90
2019-02-18T03:59:35.569Z,1.10
2019-02-18T04:00:35.619Z,1.20
2019-02-18T04:01:35.670Z,0.98
2019-02-18T04:02:35.718Z,1.04
2019-02-18T04:03:35.765Z,1.04
2019-02-18T04:04:35.816Z,1.02
2019-02-18T04:05:35.865Z,1.00
2019-02-18T04:06:35.914Z,1.18
2019-02-18T04:07:35.961Z,1.13
2019-02-18T04:08:42.852Z,0.98
2019-02-18T04:09:36.061Z,0.96
2019-02-18T04:10:36.110Z,0.90
2019-02-18T04:11:36.158Z,0.98
2019-02-18T04:12:36.207Z,1.00
2019-02-18T04:13:36.256Z,1.14
2019-02-18T04:14:36.307Z,1.18
2019-02-18T04:15:36.358Z,1.21
2019-02-18T04:16:36.406Z,1.14
2019-02-18T04:17:36.456Z,1.06
2019-02-18T04:18:36.504Z,1.13
2019-02-18T04:19:36.552Z,1.14
2019-02-18T04:20:36.600Z,1.24
2019-02-18T04:21:36.653Z,1.08
2019-02-18T04:22:36.708Z,0.98
2019-02-18T04:23:36.748Z,1.06
2019-02-18T04:24:36.796Z,1.00
2019-02-18T04:25:36.846Z,0.96
2019-02-18T04:26:36.898Z,1.02
2019-02-18T04:27:36.944Z,0.95
2019-02-18T04:28:36.996Z,0.88
2019-02-18T04:29:37.043Z,0.74
2019-02-18T04:30:37.150Z,0.75
2019-02-18T04:31:37.143Z,0.71
2019-02-18T04:32:37.189Z,0.53
2019-02-18T04:33:37.245Z,0.52
2019-02-18T04:34:37.290Z,0.63
2019-02-18T04:35:37.338Z,0.78
2019-02-18T04:36:37.386Z,0.67
2019-02-18T04:37:37.436Z,0.53
2019-02-18T04:38:37.495Z,0.52
2019-02-18T04:39:37.532Z,0.41
2019-02-18T04:40:37.584Z,0.48
2019-02-18T04:41:37.632Z,0.40
2019-02-18T04:42:37.681Z,0.43
2019-02-18T04:43:37.730Z,0.53
2019-02-18T04:44:37.779Z,0.64
2019-02-18T04:45:37.829Z,0.52
2019-02-18T04:46:38.287Z,0.53
2019-02-18T04:47:38.021Z,0.40
2019-02-18T04:48:37.993Z,0.43
2019-02-18T04:49:38.024Z,0.53
2019-02-18T04:50:38.075Z,0.40
2019-02-18T04:51:38.127Z,0.41
2019-02-18T04:52:38.179Z,0.31
2019-02-18T04:53:38.220Z,0.35
2019-02-18T04:54:38.277Z,0.53
2019-02-18T04:55:38.319Z,0.49
2019-02-18T04:56:38.370Z,0.51
2019-02-18T04:57:38.416Z,0.48
2019-02-18T04:58:38.467Z,0.33
2019-02-18T04:59:38.515Z,0.30
2019-02-18T05:00:38.611Z,0.33
2019-02-18T05:01:38.612Z,0.30
2019-02-18T05:02:38.661Z,0.52
2019-02-18T05:03:38.716Z,0.72
2019-02-18T05:04:38.758Z,0.67
2019-02-18T05:05:38.808Z,0.64
2019-02-18T05:06:38.859Z,0.68
2019-02-18T05:07:38.906Z,0.59
2019-02-18T05:08:38.956Z,0.59
2019-02-18T05:09:39.952Z,0.40
2019-02-18T05:10:39.052Z,0.40
2019-02-18T05:11:39.101Z,0.30
2019-02-18T05:12:39.149Z,0.23
2019-02-18T05:13:39.228Z,0.37
2019-02-18T05:14:39.499Z,0.56
2019-02-18T05:15:40.407Z,0.62
2019-02-18T05:16:39.345Z,0.82
2019-02-18T05:17:39.404Z,0.99
2019-02-18T05:18:39.442Z,0.98
2019-02-18T05:19:39.491Z,0.86
2019-02-18T05:20:39.546Z,0.70
2019-02-18T05:21:39.588Z,0.59
2019-02-18T05:22:39.637Z,0.51
2019-02-18T05:23:39.688Z,0.74
2019-02-18T05:24:39.734Z,0.74
2019-02-18T05:25:39.784Z,0.64
2019-02-18T05:26:39.834Z,0.56
2019-02-18T05:27:39.887Z,0.52
2019-02-18T05:28:39.929Z,0.64
2019-02-18T05:29:39.985Z,0.52
2019-02-18T05:30:40.029Z,0.56
2019-02-18T05:31:40.076Z,0.59
2019-02-18T05:32:40.131Z,0.60
2019-02-18T05:33:40.175Z,0.60
2019-02-18T05:34:40.226Z,0.77
2019-02-18T05:35:40.271Z,0.75
2019-02-18T05:36:40.323Z,0.41
2019-02-18T05:37:40.370Z,0.53
2019-02-18T05:38:40.418Z,0.45
2019-02-18T05:39:40.468Z,0.44
2019-02-18T05:40:40.525Z,0.62
2019-02-18T05:41:40.598Z,0.63
2019-02-18T05:42:40.613Z,0.59
2019-02-18T05:43:40.664Z,0.67
2019-02-18T05:44:40.711Z,0.81
2019-02-18T05:45:40.760Z,0.75
2019-02-18T05:46:40.810Z,0.62
2019-02-18T05:47:40.858Z,0.44
2019-02-18T05:48:40.911Z,0.35
2019-02-18T05:49:40.957Z,0.25
2019-02-18T05:50:41.005Z,0.26
2019-02-18T05:51:41.056Z,0.33
2019-02-18T05:52:41.106Z,0.13
2019-02-18T05:53:41.158Z,0.31
2019-02-18T05:54:41.820Z,0.33
2019-02-18T05:55:41.996Z,0.25
2019-02-18T05:56:41.331Z,0.37
2019-02-18T05:57:42.290Z,0.43
2019-02-18T05:58:42.058Z,0.52
2019-02-18T05:59:42.195Z,0.57
2019-02-18T06:00:42.173Z,0.49
2019-02-18T06:01:41.601Z,0.51
2019-02-18T06:02:41.610Z,0.35
2019-02-18T06:03:41.651Z,0.26
2019-02-18T06:04:41.737Z,0.35
2019-02-18T06:05:41.735Z,0.40
2019-02-18T06:06:42.114Z,0.51
2019-02-18T06:07:42.472Z,0.53
2019-02-18T06:08:42.298Z,0.53
2019-02-18T06:09:41.974Z,0.52
2019-02-18T06:10:42.010Z,0.53
2019-02-18T06:11:42.028Z,0.53
2019-02-18T06:12:42.083Z,0.45
2019-02-18T06:13:42.126Z,0.37
2019-02-18T06:14:42.176Z,0.31
2019-02-18T06:15:42.257Z,0.23
2019-02-18T06:16:42.278Z,0.30
2019-02-18T06:17:42.322Z,0.20
2019-02-18T06:18:42.370Z,0.25
2019-02-18T06:19:42.420Z,0.35
2019-02-18T06:20:42.515Z,0.35
2019-02-18T06:21:42.516Z,0.51
2019-02-18T06:22:42.572Z,0.53
2019-02-18T06:23:42.613Z,0.51
2019-02-18T06:24:42.663Z,0.59
2019-02-18T06:25:43.457Z,0.60
2019-02-18T06:26:42.771Z,0.62
2019-02-18T06:27:42.810Z,0.62
2019-02-18T06:28:42.858Z,0.59
2019-02-18T06:29:42.910Z,0.59
2019-02-18T06:30:42.956Z,0.59
2019-02-18T06:31:43.005Z,0.60
2019-02-18T06:32:43.053Z,0.59
2019-02-18T06:33:43.102Z,0.60
2019-02-18T06:34:43.153Z,0.63
2019-02-18T06:35:43.203Z,0.63
2019-02-18T06:36:43.250Z,0.64
2019-02-18T06:37:43.302Z,0.62
2019-02-18T06:38:43.347Z,0.63
2019-02-18T06:39:43.397Z,0.71
2019-02-18T06:40:43.447Z,0.64
2019-02-18T06:41:43.507Z,0.64
2019-02-18T06:42:43.552Z,0.64
2019-02-18T06:43:43.593Z,0.67
2019-02-18T06:44:43.641Z,0.59
2019-02-18T06:45:43.690Z,0.62
2019-02-18T06:46:43.826Z,0.56
2019-02-18T06:47:43.788Z,0.60
2019-02-18T06:48:43.836Z,0.67
2019-02-18T06:49:43.885Z,0.64
2019-02-18T06:50:43.934Z,0.49
2019-02-18T06:51:43.984Z,0.53
2019-02-18T06:52:44.032Z,0.52
2019-02-18T06:53:44.082Z,0.53
2019-02-18T06:54:44.130Z,0.49
2019-02-18T06:55:44.179Z,0.53
2019-02-18T06:56:44.227Z,0.51
2019-02-18T06:57:44.277Z,0.60
2019-02-18T06:58:44.370Z,0.57
2019-02-18T06:59:44.376Z,0.52
2019-02-18T07:00:44.424Z,0.62
2019-02-18T07:01:44.474Z,0.59
2019-02-18T07:02:44.523Z,0.57
2019-02-18T07:03:44.571Z,0.49
2019-02-18T07:04:44.621Z,0.53
2019-02-18T07:05:44.677Z,0.56
2019-02-18T07:06:44.719Z,0.60
2019-02-18T07:07:44.768Z,0.51
2019-02-18T07:08:44.817Z,0.56
2019-02-18T07:09:51.325Z,0.63
2019-02-18T07:10:44.916Z,0.53
2019-02-18T07:11:44.965Z,0.60
2019-02-18T07:12:45.019Z,0.57
2019-02-18T07:13:45.064Z,0.53
2019-02-18T07:14:45.115Z,0.51
2019-02-18T07:15:45.160Z,0.56
2019-02-18T07:16:45.210Z,0.52
2019-02-18T07:17:45.261Z,0.52
2019-02-18T07:18:45.310Z,0.51
2019-02-18T07:19:45.361Z,0.49
2019-02-18T07:20:45.408Z,0.43
2019-02-18T07:21:45.458Z,0.38
2019-02-18T07:22:45.507Z,0.53
2019-02-18T07:23:45.555Z,0.52
2019-02-18T07:24:45.605Z,0.53
2019-02-18T07:25:45.654Z,0.51
2019-02-18T07:26:45.708Z,0.48
2019-02-18T07:27:45.753Z,0.41
2019-02-18T07:28:45.802Z,0.51
2019-02-18T07:29:45.853Z,0.38
2019-02-18T07:30:45.904Z,0.38
2019-02-18T07:31:45.950Z,0.33
2019-02-18T07:32:46.070Z,0.35
2019-02-18T07:33:46.050Z,0.40
2019-02-18T07:34:46.119Z,0.43
2019-02-18T07:35:46.148Z,0.38
2019-02-18T07:36:46.199Z,0.37
2019-02-18T07:37:46.246Z,0.48
2019-02-18T07:38:46.296Z,0.45
2019-02-18T07:39:46.347Z,0.43
2019-02-18T07:40:46.395Z,0.48
2019-02-18T07:41:46.444Z,0.51
2019-02-18T07:42:46.494Z,0.53
2019-02-18T07:43:46.542Z,0.53
2019-02-18T07:44:46.591Z,0.56
2019-02-18T07:45:46.642Z,0.52
2019-02-18T07:46:46.692Z,0.56
2019-02-18T07:47:46.740Z,0.57
2019-02-18T07:48:46.790Z,0.51
2019-02-18T07:49:46.840Z,0.53
2019-02-18T07:50:46.888Z,0.56
2019-02-18T07:51:46.938Z,0.52
2019-02-18T07:52:46.986Z,0.53
2019-02-18T07:53:47.038Z,0.51
2019-02-18T07:54:47.087Z,0.53
2019-02-18T07:55:47.138Z,0.59
2019-02-18T07:56:47.188Z,0.53
2019-02-18T07:57:47.235Z,0.52
2019-02-18T07:58:47.282Z,0.62
2019-02-18T07:59:47.335Z,0.63
2019-02-18T08:00:47.382Z,0.62
2019-02-18T08:01:47.434Z,0.68
2019-02-18T08:02:47.482Z,0.74
2019-02-18T08:03:48.295Z,0.72
2019-02-18T08:04:47.586Z,0.74
2019-02-18T08:05:47.634Z,0.77
2019-02-18T08:06:47.680Z,0.74
2019-02-18T08:07:47.729Z,0.72
2019-02-18T08:08:47.778Z,0.84
2019-02-18T08:09:47.828Z,0.78
2019-02-18T08:10:47.877Z,0.70
2019-02-18T08:11:47.927Z,0.70
2019-02-18T08:12:47.976Z,0.70
2019-02-18T08:13:48.026Z,0.82
2019-02-18T08:14:48.077Z,0.88
2019-02-18T08:15:48.125Z,0.86
2019-02-18T08:16:48.176Z,0.93
2019-02-18T08:17:48.235Z,0.98
2019-02-18T08:18:48.275Z,1.04
2019-02-18T08:19:48.322Z,1.13
2019-02-18T08:20:48.373Z,1.08
2019-02-18T08:21:48.425Z,1.13
2019-02-18T08:22:48.473Z,1.17
2019-02-18T08:23:48.521Z,1.16
2019-02-18T08:24:48.571Z,1.17
2019-02-18T08:25:48.628Z,1.18
2019-02-18T08:26:48.673Z,1.18
2019-02-18T08:27:48.719Z,1.18
2019-02-18T08:28:48.769Z,1.26
2019-02-18T08:29:48.820Z,1.29
2019-02-18T08:30:48.869Z,1.28
2019-02-18T08:31:48.919Z,1.35
2019-02-18T08:32:48.969Z,1.38
2019-02-18T08:33:49.019Z,1.50
2019-02-18T08:34:49.068Z,1.52
2019-02-18T08:35:49.125Z,1.63
2019-02-18T08:36:49.170Z,1.65
2019-02-18T08:37:49.217Z,1.81
2019-02-18T08:38:49.269Z,1.79
2019-02-18T08:39:49.317Z,1.75
2019-02-18T08:40:49.367Z,1.83
2019-02-18T08:41:49.417Z,1.95
2019-02-18T08:42:49.467Z,2.01
2019-02-18T08:43:54.463Z,2.08
2019-02-18T08:44:49.568Z,2.14
2019-02-18T08:45:49.618Z,2.09
2019-02-18T08:46:49.667Z,2.20
2019-02-18T08:47:49.719Z,2.20
2019-02-18T08:48:49.772Z,2.26
2019-02-18T08:49:49.817Z,2.32
2019-02-18T08:50:49.867Z,2.33
2019-02-18T08:51:49.918Z,2.33
2019-02-18T08:52:49.972Z,2.41
2019-02-18T08:53:50.019Z,2.41
2019-02-18T08:54:56.558Z,2.47
2019-02-18T08:55:50.117Z,2.61
2019-02-18T08:56:50.171Z,2.56
2019-02-18T08:57:50.218Z,2.62
2019-02-18T08:58:50.270Z,2.73
2019-02-18T08:59:50.320Z,2.68
2019-02-18T09:00:50.378Z,2.71
2019-02-18T09:01:50.421Z,2.73
2019-02-18T09:02:50.470Z,2.79
2019-02-18T09:03:50.527Z,2.80
2019-02-18T09:04:50.572Z,2.87
2019-02-18T09:05:50.622Z,2.94
2019-02-18T09:06:50.674Z,3.08
2019-02-18T09:07:50.731Z,3.12
2019-02-18T09:08:50.773Z,3.22
2019-02-18T09:09:51.351Z,3.22
2019-02-18T09:10:50.878Z,3.28
2019-02-18T09:11:50.925Z,3.25
2019-02-18T09:12:50.978Z,3.22
2019-02-18T09:13:51.718Z,3.23
2019-02-18T09:14:51.704Z,3.30
2019-02-18T09:15:59.809Z,3.39
2019-02-18T09:16:51.180Z,3.54
2019-02-18T09:17:51.230Z,3.54
2019-02-18T09:18:51.375Z,3.57
2019-02-18T09:19:51.331Z,3.63
2019-02-18T09:20:51.384Z,3.74
2019-02-18T09:21:51.434Z,3.72
2019-02-18T09:22:51.486Z,3.72
2019-02-18T09:23:51.537Z,3.71
2019-02-18T09:24:51.591Z,3.84
2019-02-18T09:25:51.988Z,3.80
2019-02-18T09:26:51.689Z,3.71
2019-02-18T09:27:51.740Z,3.77
2019-02-18T09:28:51.793Z,3.81
2019-02-18T09:29:51.856Z,3.89
2019-02-18T09:30:51.893Z,3.90
2019-02-18T09:31:51.978Z,3.90
2019-02-18T09:32:52.019Z,3.98
2019-02-18T09:33:52.675Z,4.13
2019-02-18T09:34:53.265Z,4.17
2019-02-18T09:35:52.801Z,4.13
2019-02-18T09:36:52.211Z,4.26
2019-02-18T09:37:52.254Z,4.25
2019-02-18T09:38:52.303Z,4.31
2019-02-18T09:39:52.354Z,4.43
2019-02-18T09:40:52.419Z,4.42
2019-02-18T09:41:52.459Z,4.44
2019-02-18T09:42:52.514Z,4.47
2019-02-18T09:43:52.561Z,4.49
2019-02-18T09:44:52.613Z,4.56
2019-02-18T09:45:52.665Z,4.51
2019-02-18T09:46:52.717Z,4.61
2019-02-18T09:47:54.323Z,4.62
2019-02-18T09:48:52.819Z,4.64
2019-02-18T09:49:52.875Z,4.72
2019-02-18T09:50:52.952Z,4.84
2019-02-18T09:51:53.533Z,4.84
2019-02-18T09:52:53.029Z,4.90
2019-02-18T09:53:53.077Z,4.87
2019-02-18T09:54:53.162Z,4.84
2019-02-18T09:55:53.182Z,4.94
2019-02-18T09:56:53.264Z,4.99
2019-02-18T09:57:53.286Z,4.91
2019-02-18T09:58:53.337Z,4.94
2019-02-18T09:59:53.389Z,5.05
2019-02-18T10:00:53.445Z,5.02
2019-02-18T10:01:53.493Z,5.12
2019-02-18T10:02:53.544Z,5.15
2019-02-18T10:03:53.596Z,5.32
2019-02-18T10:04:53.648Z,5.37
2019-02-18T10:05:53.704Z,5.33
2019-02-18T10:06:54.933Z,5.40
2019-02-18T10:07:53.805Z,5.45
2019-02-18T10:08:53.858Z,5.60
2019-02-18T10:09:53.909Z,5.60
2019-02-18T10:10:56.071Z,5.80
2019-02-18T10:11:54.014Z,5.67
2019-02-18T10:12:54.066Z,5.77
2019-02-18T10:13:54.121Z,6.02
2019-02-18T10:14:54.171Z,6.05
2019-02-18T10:15:54.222Z,6.11
2019-02-18T10:16:54.275Z,6.11
2019-02-18T10:17:54.331Z,6.19
2019-02-18T10:18:54.381Z,6.28
2019-02-18T10:19:54.434Z,6.30
2019-02-18T10:20:54.485Z,6.25
2019-02-18T10:21:54.639Z,6.32
2019-02-18T10:22:54.592Z,6.40
2019-02-18T10:23:54.644Z,6.40
2019-02-18T10:24:54.696Z,6.54
2019-02-18T10:25:54.749Z,6.53
2019-02-18T10:26:54.802Z,6.60
2019-02-18T10:27:54.854Z,6.71
2019-02-18T10:28:54.908Z,6.81
2019-02-18T10:29:54.961Z,6.96
2019-02-18T10:30:55.015Z,6.91
2019-02-18T10:31:55.066Z,6.96
2019-02-18T10:32:55.119Z,7.01
2019-02-18T10:33:55.482Z,7.08
2019-02-18T10:34:55.227Z,7.15
2019-02-18T10:35:55.277Z,7.16
2019-02-18T10:36:55.333Z,7.19
2019-02-18T10:37:55.554Z,7.36
2019-02-18T10:38:55.440Z,7.34
2019-02-18T10:39:55.492Z,7.36
2019-02-18T10:41:06.079Z,7.32
2019-02-18T10:41:55.699Z,7.48
2019-02-18T10:42:55.653Z,7.39
2019-02-18T10:43:55.723Z,7.47
2019-02-18T10:44:56.379Z,7.52
2019-02-18T10:45:55.810Z,7.60
2019-02-18T10:46:55.865Z,7.66
2019-02-18T10:47:55.916Z,7.69
2019-02-18T10:48:55.970Z,7.79
2019-02-18T10:49:56.024Z,7.82
2019-02-18T10:50:56.077Z,7.81
2019-02-18T10:51:56.131Z,7.86
2019-02-18T10:52:56.184Z,7.92
2019-02-18T10:53:56.240Z,7.96
2019-02-18T10:54:56.375Z,7.95
2019-02-18T10:55:56.346Z,8.02
2019-02-18T10:56:56.404Z,8.13
2019-02-18T10:57:56.454Z,8.20
2019-02-18T10:58:56.509Z,8.13
2019-02-18T10:59:56.562Z,8.24
2019-02-18T11:00:56.623Z,8.27
2019-02-18T11:01:56.669Z,8.34
2019-02-18T11:02:56.759Z,8.36
2019-02-18T11:03:56.776Z,8.39
2019-02-18T11:04:56.869Z,8.52
2019-02-18T11:05:56.887Z,8.58
2019-02-18T11:06:56.998Z,8.61
2019-02-18T11:07:56.994Z,8.64
2019-02-18T11:08:57.048Z,8.70
2019-02-18T11:09:57.103Z,8.76
2019-02-18T11:10:57.159Z,8.80
2019-02-18T11:11:57.252Z,8.94
2019-02-18T11:12:57.264Z,8.93
2019-02-18T11:13:57.320Z,8.98
2019-02-18T11:14:57.375Z,9.08
2019-02-18T11:15:57.428Z,9.20
2019-02-18T11:16:57.510Z,9.26
2019-02-18T11:17:57.535Z,9.34
2019-02-18T11:18:57.592Z,9.31
2019-02-18T11:19:57.646Z,9.40
2019-02-18T11:20:57.699Z,9.49
2019-02-18T11:21:57.758Z,9.56
2019-02-18T11:22:57.810Z,9.60
2019-02-18T11:23:57.862Z,9.65
2019-02-18T11:24:57.919Z,9.71
2019-02-18T11:25:57.979Z,9.68
2019-02-18T11:26:58.099Z,9.68
2019-02-18T11:27:58.081Z,9.78
2019-02-18T11:28:58.137Z,9.85
2019-02-18T11:29:58.192Z,9.85
2019-02-18T11:30:58.248Z,9.83
2019-02-18T11:31:58.304Z,9.99
2019-02-18T11:32:58.357Z,10.04
2019-02-18T11:33:58.411Z,10.35
2019-02-18T11:35:00.502Z,10.51
2019-02-18T11:35:58.522Z,10.76
2019-02-18T11:36:58.577Z,10.78
2019-02-18T11:37:58.633Z,10.84
2019-02-18T11:38:58.690Z,11.16
2019-02-18T11:39:58.753Z,11.74
2019-02-18T11:40:58.800Z,12.58
2019-02-18T11:41:58.857Z,13.51
2019-02-18T11:42:58.915Z,14.45
2019-02-18T11:43:58.971Z,15.19
2019-02-18T11:44:59.028Z,15.78
2019-02-18T11:45:59.087Z,16.37
2019-02-18T11:46:59.143Z,16.34
2019-02-18T11:47:59.200Z,16.52
2019-02-18T11:48:59.258Z,16.51
2019-02-18T11:49:59.319Z,16.92
2019-02-18T11:50:59.376Z,16.92
2019-02-18T11:52:00.165Z,17.02
2019-02-18T11:53:00.165Z,17.20
2019-02-18T11:53:59.552Z,17.83
2019-02-18T11:54:59.610Z,17.80
2019-02-18T11:55:59.670Z,17.40
2019-02-18T11:56:59.730Z,16.98
2019-02-18T11:57:59.788Z,16.78
2019-02-18T11:58:59.851Z,16.85
2019-02-18T11:59:59.908Z,17.27
2019-02-18T12:00:59.967Z,17.60
2019-02-18T12:02:00.029Z,17.77
2019-02-18T12:03:03.582Z,18.21
2019-02-18T12:04:00.153Z,18.51
2019-02-18T12:05:00.310Z,18.41
2019-02-18T12:06:00.268Z,18.82
2019-02-18T12:07:00.329Z,18.41
2019-02-18T12:08:00.387Z,18.74
2019-02-18T12:09:00.448Z,18.97
2019-02-18T12:10:00.524Z,19.39
2019-02-18T12:11:00.568Z,19.40
2019-02-18T12:12:00.630Z,19.28
2019-02-18T12:13:00.689Z,18.94
2019-02-18T12:14:01.409Z,18.19
2019-02-18T12:15:00.816Z,17.89
2019-02-18T12:16:00.922Z,18.41
2019-02-18T12:17:00.933Z,18.46
2019-02-18T12:18:00.994Z,19.17
2019-02-18T12:19:01.806Z,19.52
2019-02-18T12:20:01.119Z,19.31
2019-02-18T12:21:01.182Z,19.32
2019-02-18T12:22:01.245Z,19.52
2019-02-18T12:23:01.747Z,19.97
2019-02-18T12:24:01.359Z,20.07
2019-02-18T12:25:01.424Z,20.20
2019-02-18T12:26:01.485Z,20.25
2019-02-18T12:27:01.549Z,19.75
2019-02-18T12:28:01.605Z,19.61
2019-02-18T12:29:01.675Z,19.42
2019-02-18T12:30:02.074Z,19.61
2019-02-18T12:31:01.792Z,19.55
2019-02-18T12:32:01.850Z,19.60
2019-02-18T12:33:01.911Z,20.04
2019-02-18T12:34:01.976Z,19.87
2019-02-18T12:35:02.036Z,20.33
2019-02-18T12:36:02.097Z,20.88
2019-02-18T12:37:02.467Z,20.96
2019-02-18T12:38:02.624Z,20.79
2019-02-18T12:39:02.283Z,21.48
2019-02-18T12:40:02.345Z,21.42
2019-02-18T12:41:02.406Z,21.45
2019-02-18T12:42:02.468Z,20.90
2019-02-18T12:43:02.530Z,20.44
2019-02-18T12:44:02.590Z,20.78
2019-02-18T12:45:02.655Z,20.58
2019-02-18T12:46:02.714Z,20.33
2019-02-18T12:47:02.782Z,20.72
2019-02-18T12:48:02.837Z,20.76
2019-02-18T12:49:02.900Z,20.87
2019-02-18T12:50:02.969Z,21.33
2019-02-18T12:51:03.045Z,21.58
2019-02-18T12:52:03.089Z,21.96
2019-02-18T12:53:03.149Z,22.15
2019-02-18T12:54:05.308Z,22.59
2019-02-18T12:55:03.314Z,22.33
2019-02-18T12:56:03.339Z,22.11
2019-02-18T12:57:03.400Z,21.27
2019-02-18T12:58:03.461Z,20.85
2019-02-18T12:59:03.524Z,20.34
2019-02-18T13:00:03.669Z,19.82
2019-02-18T13:01:03.647Z,19.53
2019-02-18T13:02:04.316Z,19.78
2019-02-18T13:03:04.335Z,20.22
2019-02-18T13:04:03.834Z,20.30
2019-02-18T13:05:03.901Z,20.79
2019-02-18T13:06:03.960Z,19.97
2019-02-18T13:07:04.023Z,19.80
2019-02-18T13:08:04.083Z,19.80
2019-02-18T13:09:04.146Z,19.89
2019-02-18T13:10:05.446Z,19.70
2019-02-18T13:11:04.270Z,19.55
2019-02-18T13:12:04.332Z,19.72
2019-02-18T13:13:04.394Z,19.30
2019-02-18T13:14:04.455Z,18.93
2019-02-18T13:15:04.519Z,18.86
2019-02-18T13:16:04.581Z,18.25